sensor_id;sensor_type;location;lat;lon;timestamp;P1;durP1;ratioP1;P2;durP2;ratioP2
56637;SDS011;42507;51.982;20.140;2022-10-16T00:01:10;13.85;;;10.58;;
56637;SDS011;42507;51.982;20.140;2022-10-16T00:03:39;16.55;;;10.63;;
56637;SDS011;42507;51.982;20.140;2022-10-16T00:06:07;16.85;;;10.05;;
56637;SDS011;42507;51.982;20.140;2022-10-16T00:08:35;17.07;;;10.80;;
56637;SDS011;42507;51.982;20.140;2022-10-16T00:11:09;15.98;;;10.60;;
56637;SDS011;42507;51.982;20.140;2022-10-16T00:13:39;15.68;;;10.05;;
56637;SDS011;42507;51.982;20.140;2022-10-16T00:16:07;16.40;;;10.68;;
56637;SDS011;42507;51.982;20.140;2022-10-16T00:18:35;15.10;;;10.20;;
56637;SDS011;42507;51.982;20.140;2022-10-16T00:21:06;18.25;;;11.25;;
56637;SDS011;42507;51.982;20.140;2022-10-16T00:23:35;17.48;;;11.00;;
56637;SDS011;42507;51.982;20.140;2022-10-16T00:26:02;19.98;;;11.20;;
56637;SDS011;42507;51.982;20.140;2022-10-16T00:28:32;16.05;;;11.18;;
56637;SDS011;42507;51.982;20.140;2022-10-16T00:31:03;17.75;;;11.35;;
56637;SDS011;42507;51.982;20.140;2022-10-16T00:33:33;15.20;;;11.97;;
56637;SDS011;42507;51.982;20.140;2022-10-16T00:36:02;16.60;;;12.03;;
56637;SDS011;42507;51.982;20.140;2022-10-16T00:38:29;16.12;;;11.10;;
56637;SDS011;42507;51.982;20.140;2022-10-16T00:40:56;19.17;;;12.00;;
56637;SDS011;42507;51.982;20.140;2022-10-16T00:43:39;17.20;;;11.70;;
56637;SDS011;42507;51.982;20.140;2022-10-16T00:46:27;16.85;;;12.10;;
56637;SDS011;42507;51.982;20.140;2022-10-16T00:49:07;20.62;;;12.23;;
56637;SDS011;42507;51.982;20.140;2022-10-16T00:51:47;19.90;;;12.40;;
56637;SDS011;42507;51.982;20.140;2022-10-16T00:54:18;17.45;;;12.03;;
56637;SDS011;42507;51.982;20.140;2022-10-16T00:56:51;20.12;;;12.63;;
56637;SDS011;42507;51.982;20.140;2022-10-16T00:59:20;23.22;;;12.68;;
56637;SDS011;42507;51.982;20.140;2022-10-16T01:01:50;17.05;;;11.63;;
56637;SDS011;42507;51.982;20.140;2022-10-16T01:04:17;18.73;;;12.33;;
56637;SDS011;42507;51.982;20.140;2022-10-16T01:07:00;17.73;;;11.88;;
56637;SDS011;42507;51.982;20.140;2022-10-16T01:09:39;20.35;;;12.60;;
56637;SDS011;42507;51.982;20.140;2022-10-16T01:12:16;19.32;;;12.30;;
56637;SDS011;42507;51.982;20.140;2022-10-16T01:15:11;17.45;;;12.05;;
56637;SDS011;42507;51.982;20.140;2022-10-16T01:17:56;19.75;;;12.00;;
56637;SDS011;42507;51.982;20.140;2022-10-16T01:20:30;17.50;;;12.20;;
56637;SDS011;42507;51.982;20.140;2022-10-16T01:29:02;16.52;;;11.57;;
56637;SDS011;42507;51.982;20.140;2022-10-16T01:34:06;16.67;;;11.68;;
56637;SDS011;42507;51.982;20.140;2022-10-16T01:36:41;21.40;;;12.05;;
56637;SDS011;42507;51.982;20.140;2022-10-16T01:39:22;16.62;;;11.40;;
56637;SDS011;42507;51.982;20.140;2022-10-16T01:41:57;19.50;;;12.03;;
56637;SDS011;42507;51.982;20.140;2022-10-16T01:44:28;18.25;;;12.63;;
56637;SDS011;42507;51.982;20.140;2022-10-16T01:46:52;18.45;;;11.97;;
56637;SDS011;42507;51.982;20.140;2022-10-16T01:49:19;23.55;;;12.18;;
56637;SDS011;42507;51.982;20.140;2022-10-16T01:51:48;16.42;;;12.43;;
56637;SDS011;42507;51.982;20.140;2022-10-16T01:54:18;17.00;;;12.23;;
56637;SDS011;42507;51.982;20.140;2022-10-16T01:56:45;19.25;;;13.10;;
56637;SDS011;42507;51.982;20.140;2022-10-16T01:59:13;19.48;;;13.43;;
56637;SDS011;42507;51.982;20.140;2022-10-16T02:01:43;23.00;;;13.45;;
56637;SDS011;42507;51.982;20.140;2022-10-16T02:04:14;22.70;;;13.70;;
56637;SDS011;42507;51.982;20.140;2022-10-16T02:06:46;17.45;;;12.05;;
56637;SDS011;42507;51.982;20.140;2022-10-16T02:09:13;19.82;;;12.78;;
56637;SDS011;42507;51.982;20.140;2022-10-16T02:11:41;17.48;;;12.05;;
56637;SDS011;42507;51.982;20.140;2022-10-16T02:14:07;20.97;;;12.68;;
56637;SDS011;42507;51.982;20.140;2022-10-16T02:16:38;19.75;;;12.23;;
56637;SDS011;42507;51.982;20.140;2022-10-16T02:19:09;17.60;;;12.65;;
56637;SDS011;42507;51.982;20.140;2022-10-16T02:24:26;18.95;;;12.70;;
56637;SDS011;42507;51.982;20.140;2022-10-16T02:27:24;17.95;;;12.37;;
56637;SDS011;42507;51.982;20.140;2022-10-16T02:30:00;22.13;;;14.07;;
56637;SDS011;42507;51.982;20.140;2022-10-16T02:32:40;19.50;;;13.75;;
56637;SDS011;42507;51.982;20.140;2022-10-16T02:35:09;24.05;;;13.38;;
56637;SDS011;42507;51.982;20.140;2022-10-16T02:37:36;19.95;;;12.75;;
56637;SDS011;42507;51.982;20.140;2022-10-16T02:40:03;16.60;;;12.60;;
56637;SDS011;42507;51.982;20.140;2022-10-16T02:42:35;18.67;;;12.33;;
56637;SDS011;42507;51.982;20.140;2022-10-16T02:45:04;19.05;;;12.98;;
56637;SDS011;42507;51.982;20.140;2022-10-16T02:47:33;22.90;;;13.15;;
56637;SDS011;42507;51.982;20.140;2022-10-16T02:49:59;21.30;;;12.78;;
56637;SDS011;42507;51.982;20.140;2022-10-16T02:52:26;18.85;;;13.13;;
56637;SDS011;42507;51.982;20.140;2022-10-16T02:54:52;20.43;;;12.75;;
56637;SDS011;42507;51.982;20.140;2022-10-16T02:57:18;19.05;;;12.30;;
56637;SDS011;42507;51.982;20.140;2022-10-16T02:59:44;19.30;;;13.38;;
56637;SDS011;42507;51.982;20.140;2022-10-16T03:02:10;20.77;;;12.75;;
56637;SDS011;42507;51.982;20.140;2022-10-16T03:04:36;19.32;;;13.85;;
56637;SDS011;42507;51.982;20.140;2022-10-16T03:07:02;21.23;;;13.30;;
56637;SDS011;42507;51.982;20.140;2022-10-16T03:09:29;20.37;;;13.25;;
56637;SDS011;42507;51.982;20.140;2022-10-16T03:11:55;20.68;;;13.18;;
56637;SDS011;42507;51.982;20.140;2022-10-16T03:14:21;19.23;;;13.13;;
56637;SDS011;42507;51.982;20.140;2022-10-16T03:16:47;18.77;;;13.00;;
56637;SDS011;42507;51.982;20.140;2022-10-16T03:19:15;20.20;;;12.78;;
56637;SDS011;42507;51.982;20.140;2022-10-16T03:21:43;18.75;;;13.80;;
56637;SDS011;42507;51.982;20.140;2022-10-16T03:24:09;21.35;;;13.08;;
56637;SDS011;42507;51.982;20.140;2022-10-16T03:26:35;21.77;;;13.45;;
56637;SDS011;42507;51.982;20.140;2022-10-16T03:29:02;23.35;;;13.60;;
56637;SDS011;42507;51.982;20.140;2022-10-16T03:31:29;20.72;;;13.43;;
56637;SDS011;42507;51.982;20.140;2022-10-16T03:33:56;22.42;;;13.48;;
56637;SDS011;42507;51.982;20.140;2022-10-16T03:36:22;20.65;;;13.18;;
56637;SDS011;42507;51.982;20.140;2022-10-16T03:38:48;21.02;;;13.28;;
56637;SDS011;42507;51.982;20.140;2022-10-16T03:41:14;20.32;;;13.05;;
56637;SDS011;42507;51.982;20.140;2022-10-16T03:43:41;18.82;;;12.88;;
56637;SDS011;42507;51.982;20.140;2022-10-16T03:46:07;22.42;;;13.43;;
56637;SDS011;42507;51.982;20.140;2022-10-16T03:48:33;18.85;;;13.00;;
56637;SDS011;42507;51.982;20.140;2022-10-16T03:50:59;17.75;;;13.35;;
56637;SDS011;42507;51.982;20.140;2022-10-16T03:53:25;24.67;;;13.85;;
56637;SDS011;42507;51.982;20.140;2022-10-16T03:55:51;23.18;;;13.60;;
56637;SDS011;42507;51.982;20.140;2022-10-16T03:58:18;20.32;;;12.93;;
56637;SDS011;42507;51.982;20.140;2022-10-16T04:00:45;21.30;;;14.73;;
56637;SDS011;42507;51.982;20.140;2022-10-16T04:03:13;21.97;;;13.18;;
56637;SDS011;42507;51.982;20.140;2022-10-16T04:05:39;20.10;;;13.03;;
56637;SDS011;42507;51.982;20.140;2022-10-16T04:08:05;22.20;;;13.05;;
56637;SDS011;42507;51.982;20.140;2022-10-16T04:10:31;19.23;;;12.90;;
56637;SDS011;42507;51.982;20.140;2022-10-16T04:12:57;15.75;;;11.45;;
56637;SDS011;42507;51.982;20.140;2022-10-16T04:15:23;19.95;;;12.65;;
56637;SDS011;42507;51.982;20.140;2022-10-16T04:17:50;23.98;;;13.62;;
56637;SDS011;42507;51.982;20.140;2022-10-16T04:20:17;22.48;;;14.87;;
56637;SDS011;42507;51.982;20.140;2022-10-16T04:22:44;20.68;;;13.88;;
56637;SDS011;42507;51.982;20.140;2022-10-16T04:25:10;22.00;;;14.15;;
56637;SDS011;42507;51.982;20.140;2022-10-16T04:27:37;22.32;;;13.62;;
56637;SDS011;42507;51.982;20.140;2022-10-16T04:30:04;21.05;;;14.05;;
56637;SDS011;42507;51.982;20.140;2022-10-16T04:32:31;18.77;;;13.08;;
56637;SDS011;42507;51.982;20.140;2022-10-16T04:34:58;21.23;;;13.65;;
56637;SDS011;42507;51.982;20.140;2022-10-16T04:37:24;23.32;;;15.13;;
56637;SDS011;42507;51.982;20.140;2022-10-16T04:39:52;24.50;;;14.87;;
56637;SDS011;42507;51.982;20.140;2022-10-16T04:42:19;23.92;;;15.35;;
56637;SDS011;42507;51.982;20.140;2022-10-16T04:44:46;19.32;;;14.23;;
56637;SDS011;42507;51.982;20.140;2022-10-16T04:47:12;21.93;;;14.15;;
56637;SDS011;42507;51.982;20.140;2022-10-16T04:49:39;24.23;;;15.32;;
56637;SDS011;42507;51.982;20.140;2022-10-16T04:52:05;24.02;;;15.28;;
56637;SDS011;42507;51.982;20.140;2022-10-16T04:54:32;23.73;;;14.78;;
56637;SDS011;42507;51.982;20.140;2022-10-16T04:56:58;21.97;;;14.28;;
56637;SDS011;42507;51.982;20.140;2022-10-16T04:59:24;20.40;;;14.07;;
56637;SDS011;42507;51.982;20.140;2022-10-16T05:01:50;22.65;;;14.85;;
56637;SDS011;42507;51.982;20.140;2022-10-16T05:04:16;24.23;;;15.93;;
56637;SDS011;42507;51.982;20.140;2022-10-16T05:06:42;20.40;;;14.07;;
56637;SDS011;42507;51.982;20.140;2022-10-16T05:09:09;23.50;;;15.35;;
56637;SDS011;42507;51.982;20.140;2022-10-16T05:11:35;22.55;;;15.80;;
56637;SDS011;42507;51.982;20.140;2022-10-16T05:14:01;20.65;;;14.68;;
56637;SDS011;42507;51.982;20.140;2022-10-16T05:16:28;19.60;;;14.20;;
56637;SDS011;42507;51.982;20.140;2022-10-16T05:18:56;23.12;;;15.00;;
56637;SDS011;42507;51.982;20.140;2022-10-16T05:21:22;20.65;;;14.80;;
56637;SDS011;42507;51.982;20.140;2022-10-16T05:23:48;18.82;;;13.98;;
56637;SDS011;42507;51.982;20.140;2022-10-16T05:26:14;24.67;;;14.73;;
56637;SDS011;42507;51.982;20.140;2022-10-16T05:28:41;21.33;;;14.93;;
56637;SDS011;42507;51.982;20.140;2022-10-16T05:31:07;21.37;;;14.65;;
56637;SDS011;42507;51.982;20.140;2022-10-16T05:33:34;21.07;;;15.40;;
56637;SDS011;42507;51.982;20.140;2022-10-16T05:36:05;21.45;;;14.93;;
56637;SDS011;42507;51.982;20.140;2022-10-16T05:38:34;22.07;;;15.75;;
56637;SDS011;42507;51.982;20.140;2022-10-16T05:41:02;21.30;;;14.65;;
56637;SDS011;42507;51.982;20.140;2022-10-16T05:43:30;20.25;;;14.25;;
56637;SDS011;42507;51.982;20.140;2022-10-16T05:45:59;23.18;;;15.10;;
56637;SDS011;42507;51.982;20.140;2022-10-16T05:48:28;22.07;;;14.58;;
56637;SDS011;42507;51.982;20.140;2022-10-16T05:53:32;21.20;;;14.53;;
56637;SDS011;42507;51.982;20.140;2022-10-16T05:56:00;21.97;;;14.58;;
56637;SDS011;42507;51.982;20.140;2022-10-16T05:58:34;19.37;;;13.98;;
56637;SDS011;42507;51.982;20.140;2022-10-16T06:01:02;24.23;;;15.30;;
56637;SDS011;42507;51.982;20.140;2022-10-16T06:03:32;21.93;;;14.18;;
56637;SDS011;42507;51.982;20.140;2022-10-16T06:05:59;22.30;;;13.85;;
56637;SDS011;42507;51.982;20.140;2022-10-16T06:08:38;19.48;;;13.48;;
56637;SDS011;42507;51.982;20.140;2022-10-16T06:11:06;23.87;;;14.60;;
56637;SDS011;42507;51.982;20.140;2022-10-16T06:13:35;23.42;;;13.83;;
56637;SDS011;42507;51.982;20.140;2022-10-16T06:16:02;19.40;;;13.18;;
56637;SDS011;42507;51.982;20.140;2022-10-16T06:18:30;21.60;;;14.63;;
56637;SDS011;42507;51.982;20.140;2022-10-16T06:20:56;26.42;;;14.33;;
56637;SDS011;42507;51.982;20.140;2022-10-16T06:23:23;25.15;;;13.93;;
56637;SDS011;42507;51.982;20.140;2022-10-16T06:25:50;19.35;;;14.15;;
56637;SDS011;42507;51.982;20.140;2022-10-16T06:28:16;23.98;;;14.68;;
56637;SDS011;42507;51.982;20.140;2022-10-16T06:30:42;22.87;;;14.23;;
56637;SDS011;42507;51.982;20.140;2022-10-16T06:33:11;21.70;;;14.75;;
56637;SDS011;42507;51.982;20.140;2022-10-16T06:35:38;18.30;;;13.65;;
56637;SDS011;42507;51.982;20.140;2022-10-16T06:38:04;18.57;;;13.55;;
56637;SDS011;42507;51.982;20.140;2022-10-16T06:40:30;20.60;;;13.05;;
56637;SDS011;42507;51.982;20.140;2022-10-16T06:42:56;20.20;;;13.90;;
56637;SDS011;42507;51.982;20.140;2022-10-16T06:45:23;19.65;;;13.58;;
56637;SDS011;42507;51.982;20.140;2022-10-16T06:47:49;19.10;;;12.82;;
56637;SDS011;42507;51.982;20.140;2022-10-16T06:50:15;20.00;;;13.22;;
56637;SDS011;42507;51.982;20.140;2022-10-16T06:52:41;19.87;;;12.60;;
56637;SDS011;42507;51.982;20.140;2022-10-16T06:55:07;17.62;;;12.20;;
56637;SDS011;42507;51.982;20.140;2022-10-16T06:57:33;21.87;;;12.65;;
56637;SDS011;42507;51.982;20.140;2022-10-16T06:59:59;21.80;;;14.00;;
56637;SDS011;42507;51.982;20.140;2022-10-16T07:02:26;20.48;;;12.70;;
56637;SDS011;42507;51.982;20.140;2022-10-16T07:04:52;21.17;;;13.25;;
56637;SDS011;42507;51.982;20.140;2022-10-16T07:07:18;17.40;;;11.63;;
56637;SDS011;42507;51.982;20.140;2022-10-16T07:09:44;20.97;;;13.15;;
56637;SDS011;42507;51.982;20.140;2022-10-16T07:12:10;26.62;;;12.80;;
56637;SDS011;42507;51.982;20.140;2022-10-16T07:14:36;20.57;;;13.35;;
56637;SDS011;42507;51.982;20.140;2022-10-16T07:17:02;20.25;;;13.20;;
56637;SDS011;42507;51.982;20.140;2022-10-16T07:19:28;18.15;;;12.82;;
56637;SDS011;42507;51.982;20.140;2022-10-16T07:21:55;17.37;;;13.25;;
56637;SDS011;42507;51.982;20.140;2022-10-16T07:24:22;24.57;;;13.40;;
56637;SDS011;42507;51.982;20.140;2022-10-16T07:26:48;19.37;;;12.13;;
56637;SDS011;42507;51.982;20.140;2022-10-16T07:29:19;19.35;;;12.53;;
56637;SDS011;42507;51.982;20.140;2022-10-16T07:31:47;18.67;;;12.58;;
56637;SDS011;42507;51.982;20.140;2022-10-16T07:34:15;17.57;;;12.70;;
56637;SDS011;42507;51.982;20.140;2022-10-16T07:36:43;17.17;;;12.47;;
56637;SDS011;42507;51.982;20.140;2022-10-16T07:39:09;18.70;;;12.90;;
56637;SDS011;42507;51.982;20.140;2022-10-16T07:41:35;19.17;;;12.63;;
56637;SDS011;42507;51.982;20.140;2022-10-16T07:44:03;19.73;;;12.18;;
56637;SDS011;42507;51.982;20.140;2022-10-16T07:46:30;15.98;;;12.03;;
56637;SDS011;42507;51.982;20.140;2022-10-16T07:48:56;17.67;;;12.35;;
56637;SDS011;42507;51.982;20.140;2022-10-16T07:51:23;18.15;;;12.70;;
56637;SDS011;42507;51.982;20.140;2022-10-16T07:53:51;17.25;;;12.58;;
56637;SDS011;42507;51.982;20.140;2022-10-16T07:56:18;17.80;;;11.90;;
56637;SDS011;42507;51.982;20.140;2022-10-16T07:58:45;19.82;;;12.13;;
56637;SDS011;42507;51.982;20.140;2022-10-16T08:01:13;14.83;;;11.80;;
56637;SDS011;42507;51.982;20.140;2022-10-16T08:03:47;17.05;;;12.05;;
56637;SDS011;42507;51.982;20.140;2022-10-16T08:06:15;15.95;;;11.38;;
56637;SDS011;42507;51.982;20.140;2022-10-16T08:08:43;17.35;;;11.22;;
56637;SDS011;42507;51.982;20.140;2022-10-16T08:11:09;16.17;;;11.22;;
56637;SDS011;42507;51.982;20.140;2022-10-16T08:13:35;16.30;;;10.78;;
56637;SDS011;42507;51.982;20.140;2022-10-16T08:16:02;14.50;;;11.60;;
56637;SDS011;42507;51.982;20.140;2022-10-16T08:18:31;15.30;;;10.90;;
56637;SDS011;42507;51.982;20.140;2022-10-16T08:20:57;16.77;;;11.78;;
56637;SDS011;42507;51.982;20.140;2022-10-16T08:23:26;19.70;;;11.60;;
56637;SDS011;42507;51.982;20.140;2022-10-16T08:25:53;15.72;;;11.28;;
56637;SDS011;42507;51.982;20.140;2022-10-16T08:28:20;16.55;;;11.12;;
56637;SDS011;42507;51.982;20.140;2022-10-16T08:30:46;17.57;;;11.12;;
56637;SDS011;42507;51.982;20.140;2022-10-16T08:33:12;15.00;;;11.53;;
56637;SDS011;42507;51.982;20.140;2022-10-16T08:35:39;17.32;;;11.40;;
56637;SDS011;42507;51.982;20.140;2022-10-16T08:38:05;14.90;;;11.30;;
56637;SDS011;42507;51.982;20.140;2022-10-16T08:40:33;15.38;;;10.60;;
56637;SDS011;42507;51.982;20.140;2022-10-16T08:48:56;15.88;;;12.05;;
56637;SDS011;42507;51.982;20.140;2022-10-16T08:51:24;16.75;;;12.05;;
56637;SDS011;42507;51.982;20.140;2022-10-16T08:54:02;19.70;;;11.65;;
56637;SDS011;42507;51.982;20.140;2022-10-16T08:56:30;14.33;;;10.60;;
56637;SDS011;42507;51.982;20.140;2022-10-16T08:58:57;15.50;;;10.85;;
56637;SDS011;42507;51.982;20.140;2022-10-16T09:01:25;15.25;;;11.38;;
56637;SDS011;42507;51.982;20.140;2022-10-16T09:10:02;17.95;;;11.43;;
56637;SDS011;42507;51.982;20.140;2022-10-16T09:16:01;13.43;;;10.50;;
56637;SDS011;42507;51.982;20.140;2022-10-16T09:18:49;14.58;;;11.12;;
56637;SDS011;42507;51.982;20.140;2022-10-16T09:21:23;15.72;;;10.78;;
56637;SDS011;42507;51.982;20.140;2022-10-16T09:23:57;14.40;;;11.12;;
56637;SDS011;42507;51.982;20.140;2022-10-16T09:26:40;18.17;;;10.50;;
56637;SDS011;42507;51.982;20.140;2022-10-16T09:29:08;20.43;;;10.63;;
56637;SDS011;42507;51.982;20.140;2022-10-16T09:31:38;15.60;;;10.20;;
56637;SDS011;42507;51.982;20.140;2022-10-16T09:34:04;13.60;;;10.40;;
56637;SDS011;42507;51.982;20.140;2022-10-16T09:36:36;18.23;;;11.08;;
56637;SDS011;42507;51.982;20.140;2022-10-16T09:39:05;15.78;;;10.70;;
56637;SDS011;42507;51.982;20.140;2022-10-16T09:41:40;14.23;;;9.93;;
56637;SDS011;42507;51.982;20.140;2022-10-16T09:44:18;14.23;;;10.88;;
56637;SDS011;42507;51.982;20.140;2022-10-16T09:47:11;17.77;;;10.98;;
56637;SDS011;42507;51.982;20.140;2022-10-16T09:49:59;15.98;;;11.40;;
56637;SDS011;42507;51.982;20.140;2022-10-16T09:54:58;13.18;;;10.18;;
56637;SDS011;42507;51.982;20.140;2022-10-16T09:57:27;14.93;;;10.93;;
56637;SDS011;42507;51.982;20.140;2022-10-16T09:59:56;14.18;;;10.25;;
56637;SDS011;42507;51.982;20.140;2022-10-16T10:02:30;16.32;;;10.93;;
56637;SDS011;42507;51.982;20.140;2022-10-16T10:05:17;14.43;;;10.15;;
56637;SDS011;42507;51.982;20.140;2022-10-16T10:07:37;13.05;;;9.73;;
56637;SDS011;42507;51.982;20.140;2022-10-16T10:10:06;14.43;;;9.73;;
56637;SDS011;42507;51.982;20.140;2022-10-16T10:12:44;14.20;;;10.25;;
56637;SDS011;42507;51.982;20.140;2022-10-16T10:15:11;13.48;;;9.95;;
56637;SDS011;42507;51.982;20.140;2022-10-16T10:17:49;15.72;;;10.15;;
56637;SDS011;42507;51.982;20.140;2022-10-16T10:23:00;13.70;;;9.15;;
56637;SDS011;42507;51.982;20.140;2022-10-16T10:25:36;12.63;;;9.78;;
56637;SDS011;42507;51.982;20.140;2022-10-16T10:40:07;16.20;;;9.23;;
56637;SDS011;42507;51.982;20.140;2022-10-16T10:42:48;13.13;;;8.58;;
56637;SDS011;42507;51.982;20.140;2022-10-16T10:45:26;9.90;;;8.40;;
56637;SDS011;42507;51.982;20.140;2022-10-16T10:47:57;13.83;;;9.60;;
56637;SDS011;42507;51.982;20.140;2022-10-16T10:50:38;14.35;;;10.03;;
56637;SDS011;42507;51.982;20.140;2022-10-16T10:58:44;14.35;;;9.48;;
56637;SDS011;42507;51.982;20.140;2022-10-16T11:07:02;12.80;;;9.13;;
56637;SDS011;42507;51.982;20.140;2022-10-16T11:09:41;12.88;;;9.33;;
56637;SDS011;42507;51.982;20.140;2022-10-16T11:12:14;14.20;;;9.80;;
56637;SDS011;42507;51.982;20.140;2022-10-16T11:14:49;14.55;;;9.63;;
56637;SDS011;42507;51.982;20.140;2022-10-16T11:17:27;12.40;;;9.43;;
56637;SDS011;42507;51.982;20.140;2022-10-16T11:22:58;11.93;;;9.33;;
56637;SDS011;42507;51.982;20.140;2022-10-16T11:25:30;11.50;;;8.70;;
56637;SDS011;42507;51.982;20.140;2022-10-16T11:36:38;11.50;;;8.05;;
56637;SDS011;42507;51.982;20.140;2022-10-16T11:39:20;13.10;;;7.25;;
56637;SDS011;42507;51.982;20.140;2022-10-16T11:47:42;8.08;;;6.37;;
56637;SDS011;42507;51.982;20.140;2022-10-16T11:50:23;9.23;;;6.92;;
56637;SDS011;42507;51.982;20.140;2022-10-16T11:53:04;7.37;;;6.60;;
56637;SDS011;42507;51.982;20.140;2022-10-16T11:55:49;9.48;;;6.80;;
56637;SDS011;42507;51.982;20.140;2022-10-16T12:06:34;8.05;;;6.25;;
56637;SDS011;42507;51.982;20.140;2022-10-16T12:09:20;9.67;;;6.83;;
56637;SDS011;42507;51.982;20.140;2022-10-16T12:11:53;7.05;;;6.08;;
56637;SDS011;42507;51.982;20.140;2022-10-16T12:14:33;9.08;;;5.87;;
56637;SDS011;42507;51.982;20.140;2022-10-16T12:17:04;8.43;;;6.97;;
56637;SDS011;42507;51.982;20.140;2022-10-16T12:22:50;7.50;;;6.70;;
56637;SDS011;42507;51.982;20.140;2022-10-16T12:25:27;7.17;;;5.53;;
56637;SDS011;42507;51.982;20.140;2022-10-16T12:28:02;9.20;;;5.80;;
56637;SDS011;42507;51.982;20.140;2022-10-16T12:30:56;8.80;;;5.70;;
56637;SDS011;42507;51.982;20.140;2022-10-16T12:33:26;6.10;;;5.50;;
56637;SDS011;42507;51.982;20.140;2022-10-16T12:35:56;6.00;;;5.40;;
56637;SDS011;42507;51.982;20.140;2022-10-16T12:38:30;6.85;;;5.47;;
56637;SDS011;42507;51.982;20.140;2022-10-16T12:41:23;6.35;;;4.90;;
56637;SDS011;42507;51.982;20.140;2022-10-16T12:43:56;5.33;;;4.80;;
56637;SDS011;42507;51.982;20.140;2022-10-16T12:51:50;7.00;;;5.08;;
56637;SDS011;42507;51.982;20.140;2022-10-16T12:54:25;8.18;;;5.30;;
56637;SDS011;42507;51.982;20.140;2022-10-16T12:57:18;6.90;;;5.35;;
56637;SDS011;42507;51.982;20.140;2022-10-16T13:00:13;6.47;;;5.00;;
56637;SDS011;42507;51.982;20.140;2022-10-16T13:06:19;9.63;;;5.87;;
56637;SDS011;42507;51.982;20.140;2022-10-16T13:14:35;9.28;;;5.87;;
56637;SDS011;42507;51.982;20.140;2022-10-16T13:20:33;6.97;;;5.60;;
56637;SDS011;42507;51.982;20.140;2022-10-16T13:23:29;8.25;;;5.47;;
56637;SDS011;42507;51.982;20.140;2022-10-16T13:26:04;7.40;;;5.70;;
56637;SDS011;42507;51.982;20.140;2022-10-16T13:28:44;6.90;;;5.35;;
56637;SDS011;42507;51.982;20.140;2022-10-16T13:31:29;7.42;;;5.58;;
56637;SDS011;42507;51.982;20.140;2022-10-16T13:33:50;7.58;;;5.87;;
56637;SDS011;42507;51.982;20.140;2022-10-16T13:36:28;7.87;;;6.00;;
56637;SDS011;42507;51.982;20.140;2022-10-16T13:42:04;9.85;;;6.08;;
56637;SDS011;42507;51.982;20.140;2022-10-16T13:44:43;6.10;;;5.45;;
56637;SDS011;42507;51.982;20.140;2022-10-16T13:47:19;7.60;;;5.83;;
56637;SDS011;42507;51.982;20.140;2022-10-16T13:52:32;7.05;;;5.40;;
56637;SDS011;42507;51.982;20.140;2022-10-16T13:54:59;6.45;;;5.12;;
56637;SDS011;42507;51.982;20.140;2022-10-16T13:57:25;7.53;;;5.58;;
56637;SDS011;42507;51.982;20.140;2022-10-16T13:59:52;10.50;;;6.20;;
56637;SDS011;42507;51.982;20.140;2022-10-16T14:02:27;8.93;;;5.80;;
56637;SDS011;42507;51.982;20.140;2022-10-16T14:05:02;7.22;;;5.72;;
56637;SDS011;42507;51.982;20.140;2022-10-16T14:07:35;9.55;;;6.10;;
56637;SDS011;42507;51.982;20.140;2022-10-16T14:10:00;8.65;;;5.97;;
56637;SDS011;42507;51.982;20.140;2022-10-16T14:12:30;8.50;;;5.40;;
56637;SDS011;42507;51.982;20.140;2022-10-16T14:14:57;8.25;;;5.37;;
56637;SDS011;42507;51.982;20.140;2022-10-16T14:17:25;8.75;;;5.40;;
56637;SDS011;42507;51.982;20.140;2022-10-16T14:19:57;8.68;;;6.03;;
56637;SDS011;42507;51.982;20.140;2022-10-16T14:22:33;7.45;;;5.40;;
56637;SDS011;42507;51.982;20.140;2022-10-16T14:27:57;6.83;;;5.22;;
56637;SDS011;42507;51.982;20.140;2022-10-16T14:30:30;7.47;;;5.47;;
56637;SDS011;42507;51.982;20.140;2022-10-16T14:33:04;6.97;;;5.40;;
56637;SDS011;42507;51.982;20.140;2022-10-16T14:35:33;8.48;;;6.40;;
56637;SDS011;42507;51.982;20.140;2022-10-16T14:38:03;7.53;;;5.87;;
56637;SDS011;42507;51.982;20.140;2022-10-16T14:40:36;8.35;;;6.25;;
56637;SDS011;42507;51.982;20.140;2022-10-16T14:43:02;8.43;;;5.80;;
56637;SDS011;42507;51.982;20.140;2022-10-16T14:45:30;9.00;;;5.58;;
56637;SDS011;42507;51.982;20.140;2022-10-16T14:48:06;10.08;;;6.05;;
56637;SDS011;42507;51.982;20.140;2022-10-16T14:50:37;9.08;;;6.58;;
56637;SDS011;42507;51.982;20.140;2022-10-16T14:53:07;9.75;;;6.62;;
56637;SDS011;42507;51.982;20.140;2022-10-16T14:55:39;8.70;;;6.58;;
56637;SDS011;42507;51.982;20.140;2022-10-16T14:58:25;9.10;;;6.70;;
56637;SDS011;42507;51.982;20.140;2022-10-16T15:00:44;11.05;;;6.30;;
56637;SDS011;42507;51.982;20.140;2022-10-16T15:03:10;8.58;;;6.03;;
56637;SDS011;42507;51.982;20.140;2022-10-16T15:05:37;9.18;;;6.10;;
56637;SDS011;42507;51.982;20.140;2022-10-16T15:08:03;10.25;;;6.42;;
56637;SDS011;42507;51.982;20.140;2022-10-16T15:10:30;10.20;;;6.37;;
56637;SDS011;42507;51.982;20.140;2022-10-16T15:12:58;9.25;;;6.70;;
56637;SDS011;42507;51.982;20.140;2022-10-16T15:18:09;10.72;;;7.30;;
56637;SDS011;42507;51.982;20.140;2022-10-16T15:20:36;13.15;;;7.58;;
56637;SDS011;42507;51.982;20.140;2022-10-16T15:23:04;10.25;;;7.33;;
56637;SDS011;42507;51.982;20.140;2022-10-16T15:30:35;15.55;;;8.20;;
56637;SDS011;42507;51.982;20.140;2022-10-16T15:33:03;12.90;;;9.05;;
56637;SDS011;42507;51.982;20.140;2022-10-16T15:35:30;12.78;;;8.10;;
56637;SDS011;42507;51.982;20.140;2022-10-16T15:37:56;11.28;;;8.03;;
56637;SDS011;42507;51.982;20.140;2022-10-16T15:40:23;17.32;;;8.93;;
56637;SDS011;42507;51.982;20.140;2022-10-16T15:42:49;13.75;;;8.40;;
56637;SDS011;42507;51.982;20.140;2022-10-16T15:45:15;11.18;;;8.33;;
56637;SDS011;42507;51.982;20.140;2022-10-16T15:47:42;19.15;;;9.73;;
56637;SDS011;42507;51.982;20.140;2022-10-16T15:50:09;21.02;;;11.53;;
56637;SDS011;42507;51.982;20.140;2022-10-16T15:52:38;16.62;;;11.78;;
56637;SDS011;42507;51.982;20.140;2022-10-16T15:55:10;18.77;;;10.70;;
56637;SDS011;42507;51.982;20.140;2022-10-16T15:57:36;16.62;;;10.93;;
56637;SDS011;42507;51.982;20.140;2022-10-16T16:00:05;17.27;;;11.90;;
56637;SDS011;42507;51.982;20.140;2022-10-16T16:02:36;17.12;;;12.10;;
56637;SDS011;42507;51.982;20.140;2022-10-16T16:05:02;18.57;;;11.88;;
56637;SDS011;42507;51.982;20.140;2022-10-16T16:07:32;17.60;;;11.95;;
56637;SDS011;42507;51.982;20.140;2022-10-16T16:10:00;16.55;;;11.88;;
56637;SDS011;42507;51.982;20.140;2022-10-16T16:12:27;15.13;;;10.53;;
56637;SDS011;42507;51.982;20.140;2022-10-16T16:14:53;14.73;;;10.70;;
56637;SDS011;42507;51.982;20.140;2022-10-16T16:17:19;13.22;;;10.15;;
56637;SDS011;42507;51.982;20.140;2022-10-16T16:19:45;18.27;;;10.45;;
56637;SDS011;42507;51.982;20.140;2022-10-16T16:22:12;17.27;;;12.75;;
56637;SDS011;42507;51.982;20.140;2022-10-16T16:24:38;15.65;;;11.15;;
56637;SDS011;42507;51.982;20.140;2022-10-16T16:27:05;20.68;;;11.18;;
56637;SDS011;42507;51.982;20.140;2022-10-16T16:29:31;21.55;;;11.93;;
56637;SDS011;42507;51.982;20.140;2022-10-16T16:31:58;20.75;;;13.58;;